sensor_id;sensor_type;location;lat;lon;timestamp;temperature;humidity
1878;DHT22;939;51.426;6.972;2023-12-20T00:01:23;9.30;99.90
1878;DHT22;939;51.426;6.972;2023-12-20T00:03:50;9.20;99.90
1878;DHT22;939;51.426;6.972;2023-12-20T00:06:16;9.20;99.90
1878;DHT22;939;51.426;6.972;2023-12-20T00:08:43;9.20;99.90
1878;DHT22;939;51.426;6.972;2023-12-20T00:11:10;9.30;99.90
1878;DHT22;939;51.426;6.972;2023-12-20T00:13:37;9.20;99.90
1878;DHT22;939;51.426;6.972;2023-12-20T00:16:06;9.20;99.90
1878;DHT22;939;51.426;6.972;2023-12-20T00:18:32;9.20;99.90
1878;DHT22;939;51.426;6.972;2023-12-20T00:20:59;9.20;99.90
1878;DHT22;939;51.426;6.972;2023-12-20T00:23:26;9.20;99.90
1878;DHT22;939;51.426;6.972;2023-12-20T00:25:53;9.20;99.90
1878;DHT22;939;51.426;6.972;2023-12-20T00:28:20;9.30;99.90
1878;DHT22;939;51.426;6.972;2023-12-20T00:30:47;9.20;99.90
1878;DHT22;939;51.426;6.972;2023-12-20T00:33:15;9.20;99.90
1878;DHT22;939;51.426;6.972;2023-12-20T00:35:42;9.20;99.90
1878;DHT22;939;51.426;6.972;2023-12-20T00:38:09;9.00;99.90
1878;DHT22;939;51.426;6.972;2023-12-20T00:40:37;9.00;99.90
1878;DHT22;939;51.426;6.972;2023-12-20T00:43:04;8.90;99.90
1878;DHT22;939;51.426;6.972;2023-12-20T00:45:30;8.80;99.90
1878;DHT22;939;51.426;6.972;2023-12-20T00:47:57;8.80;99.90
1878;DHT22;939;51.426;6.972;2023-12-20T00:50:26;8.80;99.90
1878;DHT22;939;51.426;6.972;2023-12-20T00:52:53;8.80;99.90
1878;DHT22;939;51.426;6.972;2023-12-20T00:55:21;8.80;99.90
1878;DHT22;939;51.426;6.972;2023-12-20T00:57:48;8.80;99.90
1878;DHT22;939;51.426;6.972;2023-12-20T01:00:16;8.70;99.90
1878;DHT22;939;51.426;6.972;2023-12-20T01:02:42;8.70;99.90
1878;DHT22;939;51.426;6.972;2023-12-20T01:05:22;8.80;99.90
1878;DHT22;939;51.426;6.972;2023-12-20T01:08:02;8.70;99.90
1878;DHT22;939;51.426;6.972;2023-12-20T01:10:32;8.70;99.90
1878;DHT22;939;51.426;6.972;2023-12-20T01:16:16;8.70;99.90
1878;DHT22;939;51.426;6.972;2023-12-20T01:18:57;8.70;99.90
1878;DHT22;939;51.426;6.972;2023-12-20T01:22:16;8.70;99.90
1878;DHT22;939;51.426;6.972;2023-12-20T01:24:57;8.60;99.90
1878;DHT22;939;51.426;6.972;2023-12-20T01:27:24;8.60;99.90
1878;DHT22;939;51.426;6.972;2023-12-20T01:29:50;8.60;99.90
1878;DHT22;939;51.426;6.972;2023-12-20T01:32:17;8.50;99.90
1878;DHT22;939;51.426;6.972;2023-12-20T01:34:44;8.50;99.90
1878;DHT22;939;51.426;6.972;2023-12-20T01:37:11;8.50;99.90
1878;DHT22;939;51.426;6.972;2023-12-20T01:39:38;8.50;99.90
1878;DHT22;939;51.426;6.972;2023-12-20T01:42:06;8.50;99.90
1878;DHT22;939;51.426;6.972;2023-12-20T01:44:33;8.60;99.90
1878;DHT22;939;51.426;6.972;2023-12-20T01:47:00;8.60;99.90
1878;DHT22;939;51.426;6.972;2023-12-20T01:49:28;8.60;99.90
1878;DHT22;939;51.426;6.972;2023-12-20T01:51:55;8.60;99.90
1878;DHT22;939;51.426;6.972;2023-12-20T01:54:22;8.50;99.90
1878;DHT22;939;51.426;6.972;2023-12-20T01:56:52;8.50;99.90
1878;DHT22;939;51.426;6.972;2023-12-20T01:59:21;8.40;99.90
1878;DHT22;939;51.426;6.972;2023-12-20T02:01:58;8.40;99.90
1878;DHT22;939;51.426;6.972;2023-12-20T02:04:26;8.30;99.90
1878;DHT22;939;51.426;6.972;2023-12-20T02:06:53;8.20;99.90
1878;DHT22;939;51.426;6.972;2023-12-20T02:09:22;8.30;99.90
1878;DHT22;939;51.426;6.972;2023-12-20T02:11:49;8.20;99.90
1878;DHT22;939;51.426;6.972;2023-12-20T02:14:16;8.20;99.90
1878;DHT22;939;51.426;6.972;2023-12-20T02:16:55;8.20;99.90
1878;DHT22;939;51.426;6.972;2023-12-20T02:19:22;8.20;99.90
1878;DHT22;939;51.426;6.972;2023-12-20T02:22:05;8.20;99.90
1878;DHT22;939;51.426;6.972;2023-12-20T02:24:34;8.20;99.90
1878;DHT22;939;51.426;6.972;2023-12-20T02:27:01;8.30;99.90
1878;DHT22;939;51.426;6.972;2023-12-20T02:29:28;8.30;99.90
1878;DHT22;939;51.426;6.972;2023-12-20T02:31:55;8.30;99.90
1878;DHT22;939;51.426;6.972;2023-12-20T02:34:22;8.30;99.90
1878;DHT22;939;51.426;6.972;2023-12-20T02:36:51;8.20;99.90
1878;DHT22;939;51.426;6.972;2023-12-20T02:39:18;8.20;99.90
1878;DHT22;939;51.426;6.972;2023-12-20T02:41:53;8.20;99.90
1878;DHT22;939;51.426;6.972;2023-12-20T02:44:28;8.10;99.90
1878;DHT22;939;51.426;6.972;2023-12-20T02:46:55;8.00;99.90
1878;DHT22;939;51.426;6.972;2023-12-20T02:49:22;8.00;99.90
1878;DHT22;939;51.426;6.972;2023-12-20T02:51:51;8.00;99.90
1878;DHT22;939;51.426;6.972;2023-12-20T02:54:18;8.00;99.90
1878;DHT22;939;51.426;6.972;2023-12-20T02:56:45;8.00;99.90
1878;DHT22;939;51.426;6.972;2023-12-20T02:59:12;7.90;99.90
1878;DHT22;939;51.426;6.972;2023-12-20T03:01:42;7.90;99.90
1878;DHT22;939;51.426;6.972;2023-12-20T03:04:09;7.90;99.90
1878;DHT22;939;51.426;6.972;2023-12-20T03:06:36;7.80;99.90
1878;DHT22;939;51.426;6.972;2023-12-20T03:09:05;7.90;99.90
1878;DHT22;939;51.426;6.972;2023-12-20T03:11:32;7.80;99.90
1878;DHT22;939;51.426;6.972;2023-12-20T03:13:59;7.80;99.90
1878;DHT22;939;51.426;6.972;2023-12-20T03:16:26;7.90;99.90
1878;DHT22;939;51.426;6.972;2023-12-20T03:18:53;7.80;99.90
1878;DHT22;939;51.426;6.972;2023-12-20T03:21:20;7.80;99.90
1878;DHT22;939;51.426;6.972;2023-12-20T03:23:47;7.70;99.90
1878;DHT22;939;51.426;6.972;2023-12-20T03:26:15;7.70;99.90
1878;DHT22;939;51.426;6.972;2023-12-20T03:28:42;7.70;99.90
1878;DHT22;939;51.426;6.972;2023-12-20T03:31:09;7.70;99.90
1878;DHT22;939;51.426;6.972;2023-12-20T03:33:36;7.70;99.90
1878;DHT22;939;51.426;6.972;2023-12-20T03:36:04;7.70;99.90
1878;DHT22;939;51.426;6.972;2023-12-20T03:38:30;7.70;99.90
1878;DHT22;939;51.426;6.972;2023-12-20T03:40:57;7.70;99.90
1878;DHT22;939;51.426;6.972;2023-12-20T03:43:26;7.60;99.90
1878;DHT22;939;51.426;6.972;2023-12-20T03:45:53;7.60;99.90
1878;DHT22;939;51.426;6.972;2023-12-20T03:48:20;7.60;99.90
1878;DHT22;939;51.426;6.972;2023-12-20T03:50:47;7.60;99.90
1878;DHT22;939;51.426;6.972;2023-12-20T03:53:14;7.50;99.90
1878;DHT22;939;51.426;6.972;2023-12-20T03:55:41;7.60;99.90
1878;DHT22;939;51.426;6.972;2023-12-20T03:58:09;7.60;99.90
1878;DHT22;939;51.426;6.972;2023-12-20T04:00:38;7.50;99.90
1878;DHT22;939;51.426;6.972;2023-12-20T04:03:05;7.50;99.90
1878;DHT22;939;51.426;6.972;2023-12-20T04:05:34;7.50;99.90
1878;DHT22;939;51.426;6.972;2023-12-20T04:08:05;7.50;99.90
1878;DHT22;939;51.426;6.972;2023-12-20T04:10:32;7.40;99.90
1878;DHT22;939;51.426;6.972;2023-12-20T04:13:07;7.40;99.90
1878;DHT22;939;51.426;6.972;2023-12-20T04:15:39;7.40;99.90
1878;DHT22;939;51.426;6.972;2023-12-20T04:18:08;7.30;99.90
1878;DHT22;939;51.426;6.972;2023-12-20T04:20:35;7.40;99.90
1878;DHT22;939;51.426;6.972;2023-12-20T04:23:03;7.50;99.90
1878;DHT22;939;51.426;6.972;2023-12-20T04:25:30;7.50;99.90
1878;DHT22;939;51.426;6.972;2023-12-20T04:27:57;7.50;99.90
1878;DHT22;939;51.426;6.972;2023-12-20T04:30:24;7.40;99.90
1878;DHT22;939;51.426;6.972;2023-12-20T04:32:53;7.40;99.90
1878;DHT22;939;51.426;6.972;2023-12-20T04:35:23;7.30;99.90
1878;DHT22;939;51.426;6.972;2023-12-20T04:37:51;7.30;99.90
1878;DHT22;939;51.426;6.972;2023-12-20T04:40:21;7.30;99.90
1878;DHT22;939;51.426;6.972;2023-12-20T04:42:51;7.30;99.90
1878;DHT22;939;51.426;6.972;2023-12-20T04:45:19;7.40;99.90
1878;DHT22;939;51.426;6.972;2023-12-20T04:47:55;7.40;99.90
1878;DHT22;939;51.426;6.972;2023-12-20T04:50:22;7.40;99.90
1878;DHT22;939;51.426;6.972;2023-12-20T04:52:49;7.40;99.90
1878;DHT22;939;51.426;6.972;2023-12-20T04:55:18;7.40;99.90
1878;DHT22;939;51.426;6.972;2023-12-20T04:57:48;7.30;99.90
1878;DHT22;939;51.426;6.972;2023-12-20T05:00:26;7.40;99.90
1878;DHT22;939;51.426;6.972;2023-12-20T05:03:02;7.30;99.90
1878;DHT22;939;51.426;6.972;2023-12-20T05:05:31;7.30;99.90
1878;DHT22;939;51.426;6.972;2023-12-20T05:07:58;7.30;99.90
1878;DHT22;939;51.426;6.972;2023-12-20T05:10:25;7.30;99.90
1878;DHT22;939;51.426;6.972;2023-12-20T05:12:52;7.40;99.90
1878;DHT22;939;51.426;6.972;2023-12-20T05:15:22;7.30;99.90
1878;DHT22;939;51.426;6.972;2023-12-20T05:17:49;7.40;99.90
1878;DHT22;939;51.426;6.972;2023-12-20T05:20:19;7.40;99.90
1878;DHT22;939;51.426;6.972;2023-12-20T05:22:54;7.30;99.90
1878;DHT22;939;51.426;6.972;2023-12-20T05:25:30;7.30;99.90
1878;DHT22;939;51.426;6.972;2023-12-20T05:27:57;7.30;99.90
1878;DHT22;939;51.426;6.972;2023-12-20T05:30:26;7.40;99.90
1878;DHT22;939;51.426;6.972;2023-12-20T05:32:53;7.40;99.90
1878;DHT22;939;51.426;6.972;2023-12-20T05:35:21;7.40;99.90
1878;DHT22;939;51.426;6.972;2023-12-20T05:37:49;7.40;99.90
1878;DHT22;939;51.426;6.972;2023-12-20T05:40:16;7.40;99.90
1878;DHT22;939;51.426;6.972;2023-12-20T05:42:46;7.50;99.90
1878;DHT22;939;51.426;6.972;2023-12-20T05:45:20;7.40;99.90
1878;DHT22;939;51.426;6.972;2023-12-20T05:47:47;7.50;99.90
1878;DHT22;939;51.426;6.972;2023-12-20T05:50:14;7.60;99.90
1878;DHT22;939;51.426;6.972;2023-12-20T05:52:43;7.50;99.90
1878;DHT22;939;51.426;6.972;2023-12-20T05:55:12;7.50;99.90
1878;DHT22;939;51.426;6.972;2023-12-20T05:57:42;7.50;99.90
1878;DHT22;939;51.426;6.972;2023-12-20T06:00:10;7.50;99.90
1878;DHT22;939;51.426;6.972;2023-12-20T06:02:39;7.50;99.90
1878;DHT22;939;51.426;6.972;2023-12-20T06:05:07;7.60;99.90
1878;DHT22;939;51.426;6.972;2023-12-20T06:07:34;7.50;99.90
1878;DHT22;939;51.426;6.972;2023-12-20T06:10:05;7.50;99.90
1878;DHT22;939;51.426;6.972;2023-12-20T06:12:33;7.50;99.90
1878;DHT22;939;51.426;6.972;2023-12-20T06:15:01;7.50;99.90
1878;DHT22;939;51.426;6.972;2023-12-20T06:17:29;7.50;99.90
1878;DHT22;939;51.426;6.972;2023-12-20T06:19:57;7.40;99.90
1878;DHT22;939;51.426;6.972;2023-12-20T06:22:24;7.50;99.90
1878;DHT22;939;51.426;6.972;2023-12-20T06:24:54;7.50;99.90
1878;DHT22;939;51.426;6.972;2023-12-20T06:27:23;7.50;99.90
1878;DHT22;939;51.426;6.972;2023-12-20T06:29:50;7.50;99.90
1878;DHT22;939;51.426;6.972;2023-12-20T06:32:17;7.40;99.90
1878;DHT22;939;51.426;6.972;2023-12-20T06:34:53;7.50;99.90
1878;DHT22;939;51.426;6.972;2023-12-20T06:37:25;7.50;99.90
1878;DHT22;939;51.426;6.972;2023-12-20T06:39:59;7.40;99.90
1878;DHT22;939;51.426;6.972;2023-12-20T06:42:30;7.50;99.90
1878;DHT22;939;51.426;6.972;2023-12-20T06:45:01;7.40;99.90
1878;DHT22;939;51.426;6.972;2023-12-20T06:47:31;7.40;99.90
1878;DHT22;939;51.426;6.972;2023-12-20T06:49:59;7.50;99.90
1878;DHT22;939;51.426;6.972;2023-12-20T06:52:26;7.50;99.90
1878;DHT22;939;51.426;6.972;2023-12-20T06:55:05;7.50;99.90
1878;DHT22;939;51.426;6.972;2023-12-20T06:57:34;7.40;99.90
1878;DHT22;939;51.426;6.972;2023-12-20T07:00:02;7.50;99.90
1878;DHT22;939;51.426;6.972;2023-12-20T07:02:29;7.40;99.90
1878;DHT22;939;51.426;6.972;2023-12-20T07:05:36;7.40;99.90
1878;DHT22;939;51.426;6.972;2023-12-20T07:08:26;7.50;99.90
1878;DHT22;939;51.426;6.972;2023-12-20T07:11:01;7.50;99.90
1878;DHT22;939;51.426;6.972;2023-12-20T07:14:05;7.50;99.90
1878;DHT22;939;51.426;6.972;2023-12-20T07:16:58;7.50;99.90
1878;DHT22;939;51.426;6.972;2023-12-20T07:19:28;7.60;99.90
1878;DHT22;939;51.426;6.972;2023-12-20T07:21:58;7.50;99.90
1878;DHT22;939;51.426;6.972;2023-12-20T07:24:27;7.50;99.90
1878;DHT22;939;51.426;6.972;2023-12-20T07:27:03;7.40;99.90
1878;DHT22;939;51.426;6.972;2023-12-20T07:29:45;7.50;99.90
1878;DHT22;939;51.426;6.972;2023-12-20T07:32:22;7.50;99.90
1878;DHT22;939;51.426;6.972;2023-12-20T07:34:55;7.50;99.90
1878;DHT22;939;51.426;6.972;2023-12-20T07:37:34;7.50;99.90
1878;DHT22;939;51.426;6.972;2023-12-20T07:40:22;7.50;99.90
1878;DHT22;939;51.426;6.972;2023-12-20T07:43:06;7.50;99.90
1878;DHT22;939;51.426;6.972;2023-12-20T07:52:42;7.60;99.90
1878;DHT22;939;51.426;6.972;2023-12-20T07:55:17;7.60;99.90
1878;DHT22;939;51.426;6.972;2023-12-20T07:57:52;7.60;99.90
1878;DHT22;939;51.426;6.972;2023-12-20T08:52:37;7.60;99.90
1878;DHT22;939;51.426;6.972;2023-12-20T08:55:05;7.60;99.90
1878;DHT22;939;51.426;6.972;2023-12-20T08:57:33;7.50;99.90
1878;DHT22;939;51.426;6.972;2023-12-20T09:00:00;7.50;99.90
1878;DHT22;939;51.426;6.972;2023-12-20T09:02:27;7.60;99.90
1878;DHT22;939;51.426;6.972;2023-12-20T09:04:57;7.60;99.90
1878;DHT22;939;51.426;6.972;2023-12-20T09:07:25;7.60;99.90
1878;DHT22;939;51.426;6.972;2023-12-20T09:09:54;7.70;99.90
1878;DHT22;939;51.426;6.972;2023-12-20T09:12:31;7.70;99.90
1878;DHT22;939;51.426;6.972;2023-12-20T09:14:58;7.70;99.90
1878;DHT22;939;51.426;6.972;2023-12-20T09:17:28;7.80;99.90
1878;DHT22;939;51.426;6.972;2023-12-20T09:20:04;7.70;99.90
1878;DHT22;939;51.426;6.972;2023-12-20T09:22:36;7.80;99.90
1878;DHT22;939;51.426;6.972;2023-12-20T09:25:10;7.80;99.90
1878;DHT22;939;51.426;6.972;2023-12-20T09:27:45;7.80;99.90
1878;DHT22;939;51.426;6.972;2023-12-20T09:30:12;7.80;99.90
1878;DHT22;939;51.426;6.972;2023-12-20T09:32:40;7.80;99.90
1878;DHT22;939;51.426;6.972;2023-12-20T09:35:07;7.70;99.90
1878;DHT22;939;51.426;6.972;2023-12-20T09:37:34;7.80;99.90
1878;DHT22;939;51.426;6.972;2023-12-20T09:40:01;7.80;99.90
1878;DHT22;939;51.426;6.972;2023-12-20T09:42:39;7.80;99.90
1878;DHT22;939;51.426;6.972;2023-12-20T09:45:11;7.80;99.90
1878;DHT22;939;51.426;6.972;2023-12-20T09:47:39;7.80;99.90
1878;DHT22;939;51.426;6.972;2023-12-20T09:50:07;7.80;99.90
1878;DHT22;939;51.426;6.972;2023-12-20T09:52:36;7.80;99.90
1878;DHT22;939;51.426;6.972;2023-12-20T09:55:05;7.80;99.90
1878;DHT22;939;51.426;6.972;2023-12-20T09:57:36;7.80;99.90
1878;DHT22;939;51.426;6.972;2023-12-20T10:00:05;7.80;99.90
1878;DHT22;939;51.426;6.972;2023-12-20T10:02:41;7.80;99.90
1878;DHT22;939;51.426;6.972;2023-12-20T10:05:20;7.90;99.90
1878;DHT22;939;51.426;6.972;2023-12-20T10:07:58;8.00;99.90
1878;DHT22;939;51.426;6.972;2023-12-20T10:10:28;8.00;99.90
1878;DHT22;939;51.426;6.972;2023-12-20T10:13:11;8.00;99.90
1878;DHT22;939;51.426;6.972;2023-12-20T10:15:39;8.00;99.90
1878;DHT22;939;51.426;6.972;2023-12-20T10:18:06;8.00;99.90
1878;DHT22;939;51.426;6.972;2023-12-20T10:20:33;8.00;99.90
1878;DHT22;939;51.426;6.972;2023-12-20T10:23:06;8.00;99.90
1878;DHT22;939;51.426;6.972;2023-12-20T10:25:33;7.90;99.90
1878;DHT22;939;51.426;6.972;2023-12-20T10:28:11;7.90;99.90
1878;DHT22;939;51.426;6.972;2023-12-20T10:30:43;7.90;99.90
1878;DHT22;939;51.426;6.972;2023-12-20T10:33:11;7.90;99.90
1878;DHT22;939;51.426;6.972;2023-12-20T10:35:39;7.80;99.90
1878;DHT22;939;51.426;6.972;2023-12-20T10:38:06;7.80;99.90
1878;DHT22;939;51.426;6.972;2023-12-20T10:40:36;7.90;99.90
1878;DHT22;939;51.426;6.972;2023-12-20T10:43:03;8.00;99.90
1878;DHT22;939;51.426;6.972;2023-12-20T10:45:34;8.00;99.90
1878;DHT22;939;51.426;6.972;2023-12-20T10:48:02;8.10;99.90
1878;DHT22;939;51.426;6.972;2023-12-20T10:50:30;8.10;99.90
1878;DHT22;939;51.426;6.972;2023-12-20T10:52:57;8.10;99.90
1878;DHT22;939;51.426;6.972;2023-12-20T10:55:25;8.10;99.90
1878;DHT22;939;51.426;6.972;2023-12-20T10:57:57;8.10;99.90
1878;DHT22;939;51.426;6.972;2023-12-20T11:00:28;8.20;99.90
1878;DHT22;939;51.426;6.972;2023-12-20T11:03:00;8.20;99.90
1878;DHT22;939;51.426;6.972;2023-12-20T11:05:36;8.10;99.90
1878;DHT22;939;51.426;6.972;2023-12-20T11:08:11;8.10;99.90
1878;DHT22;939;51.426;6.972;2023-12-20T11:10:44;8.10;99.90
1878;DHT22;939;51.426;6.972;2023-12-20T11:13:20;8.10;99.90
1878;DHT22;939;51.426;6.972;2023-12-20T11:15:48;8.10;99.90
1878;DHT22;939;51.426;6.972;2023-12-20T11:18:16;8.10;99.90
1878;DHT22;939;51.426;6.972;2023-12-20T11:20:43;8.10;99.90
1878;DHT22;939;51.426;6.972;2023-12-20T11:23:10;8.10;99.90
1878;DHT22;939;51.426;6.972;2023-12-20T11:25:47;8.10;99.90
1878;DHT22;939;51.426;6.972;2023-12-20T11:28:15;8.00;99.90
1878;DHT22;939;51.426;6.972;2023-12-20T11:30:47;8.10;99.90
1878;DHT22;939;51.426;6.972;2023-12-20T11:33:16;8.10;99.90
1878;DHT22;939;51.426;6.972;2023-12-20T11:35:43;8.10;99.90
1878;DHT22;939;51.426;6.972;2023-12-20T11:38:14;8.20;99.90
1878;DHT22;939;51.426;6.972;2023-12-20T11:40:47;8.20;99.90
1878;DHT22;939;51.426;6.972;2023-12-20T11:43:29;8.30;99.90
1878;DHT22;939;51.426;6.972;2023-12-20T11:46:06;8.20;99.90
1878;DHT22;939;51.426;6.972;2023-12-20T11:48:38;8.30;99.90
1878;DHT22;939;51.426;6.972;2023-12-20T11:51:09;8.20;99.90
1878;DHT22;939;51.426;6.972;2023-12-20T11:53:36;8.20;99.90
1878;DHT22;939;51.426;6.972;2023-12-20T11:56:04;8.20;99.90
1878;DHT22;939;51.426;6.972;2023-12-20T11:58:33;8.20;99.90
1878;DHT22;939;51.426;6.972;2023-12-20T12:01:00;8.30;99.90
1878;DHT22;939;51.426;6.972;2023-12-20T12:03:30;8.30;99.90
1878;DHT22;939;51.426;6.972;2023-12-20T12:05:58;8.30;99.90
1878;DHT22;939;51.426;6.972;2023-12-20T12:08:26;8.30;99.90
1878;DHT22;939;51.426;6.972;2023-12-20T12:10:53;8.30;99.90
1878;DHT22;939;51.426;6.972;2023-12-20T12:13:23;8.30;99.90
1878;DHT22;939;51.426;6.972;2023-12-20T12:15:53;8.30;99.90
1878;DHT22;939;51.426;6.972;2023-12-20T12:18:20;8.30;99.90
1878;DHT22;939;51.426;6.972;2023-12-20T12:20:47;8.30;99.90
1878;DHT22;939;51.426;6.972;2023-12-20T12:23:22;8.30;99.90
1878;DHT22;939;51.426;6.972;2023-12-20T12:25:53;8.30;99.90
1878;DHT22;939;51.426;6.972;2023-12-20T12:28:29;8.20;99.90
1878;DHT22;939;51.426;6.972;2023-12-20T12:31:07;8.30;99.90
1878;DHT22;939;51.426;6.972;2023-12-20T12:33:34;8.30;99.90
1878;DHT22;939;51.426;6.972;2023-12-20T12:36:01;8.30;99.90
1878;DHT22;939;51.426;6.972;2023-12-20T12:38:33;8.30;99.90
1878;DHT22;939;51.426;6.972;2023-12-20T12:41:14;8.40;99.90
1878;DHT22;939;51.426;6.972;2023-12-20T12:43:54;8.40;99.90
1878;DHT22;939;51.426;6.972;2023-12-20T12:46:39;8.40;99.90
1878;DHT22;939;51.426;6.972;2023-12-20T12:49:07;8.50;99.90
1878;DHT22;939;51.426;6.972;2023-12-20T12:51:40;8.50;99.90
1878;DHT22;939;51.426;6.972;2023-12-20T12:54:24;8.50;99.90
1878;DHT22;939;51.426;6.972;2023-12-20T12:56:52;8.60;99.90
1878;DHT22;939;51.426;6.972;2023-12-20T12:59:20;8.60;99.90
1878;DHT22;939;51.426;6.972;2023-12-20T13:01:48;8.60;99.90
1878;DHT22;939;51.426;6.972;2023-12-20T13:04:48;8.50;99.90
1878;DHT22;939;51.426;6.972;2023-12-20T13:07:23;8.40;99.90
1878;DHT22;939;51.426;6.972;2023-12-20T13:10:06;8.50;99.90
1878;DHT22;939;51.426;6.972;2023-12-20T13:15:51;8.50;99.90
1878;DHT22;939;51.426;6.972;2023-12-20T13:18:23;8.50;99.90
1878;DHT22;939;51.426;6.972;2023-12-20T13:20:53;8.50;99.90
1878;DHT22;939;51.426;6.972;2023-12-20T13:23:23;8.50;99.90
1878;DHT22;939;51.426;6.972;2023-12-20T13:25:52;8.40;99.90
1878;DHT22;939;51.426;6.972;2023-12-20T13:28:24;8.40;99.90
1878;DHT22;939;51.426;6.972;2023-12-20T13:30:58;8.50;99.90
1878;DHT22;939;51.426;6.972;2023-12-20T13:33:32;8.40;99.90
1878;DHT22;939;51.426;6.972;2023-12-20T13:36:04;8.40;99.90
1878;DHT22;939;51.426;6.972;2023-12-20T13:38:32;8.40;99.90
1878;DHT22;939;51.426;6.972;2023-12-20T18:52:04;8.60;99.90
1878;DHT22;939;51.426;6.972;2023-12-20T18:54:32;8.60;99.90
1878;DHT22;939;51.426;6.972;2023-12-20T18:57:09;8.60;99.90
1878;DHT22;939;51.426;6.972;2023-12-20T18:59:41;8.60;99.90
1878;DHT22;939;51.426;6.972;2023-12-20T19:02:38;8.70;99.90
1878;DHT22;939;51.426;6.972;2023-12-20T19:05:24;8.60;99.90
1878;DHT22;939;51.426;6.972;2023-12-20T20:31:58;8.60;99.90
1878;DHT22;939;51.426;6.972;2023-12-20T20:34:26;8.80;99.90
1878;DHT22;939;51.426;6.972;2023-12-20T21:25:31;8.80;99.90
1878;DHT22;939;51.426;6.972;2023-12-20T21:28:19;8.80;99.90
1878;DHT22;939;51.426;6.972;2023-12-20T21:31:01;8.80;99.90
1878;DHT22;939;51.426;6.972;2023-12-20T21:33:30;8.80;99.90
1878;DHT22;939;51.426;6.972;2023-12-20T21:35:57;8.80;99.90
1878;DHT22;939;51.426;6.972;2023-12-20T21:38:25;8.80;99.90
1878;DHT22;939;51.426;6.972;2023-12-20T21:40:53;8.80;99.90
1878;DHT22;939;51.426;6.972;2023-12-20T21:43:20;8.80;99.90
1878;DHT22;939;51.426;6.972;2023-12-20T21:45:49;8.80;99.90
1878;DHT22;939;51.426;6.972;2023-12-20T21:48:16;8.80;99.90
1878;DHT22;939;51.426;6.972;2023-12-20T21:50:43;8.70;99.90
1878;DHT22;939;51.426;6.972;2023-12-20T21:53:10;8.80;99.90
1878;DHT22;939;51.426;6.972;2023-12-20T21:55:38;8.80;99.90
1878;DHT22;939;51.426;6.972;2023-12-20T21:58:10;8.90;99.90
1878;DHT22;939;51.426;6.972;2023-12-20T22:00:37;8.90;99.90
1878;DHT22;939;51.426;6.972;2023-12-20T22:03:05;8.90;99.90
1878;DHT22;939;51.426;6.972;2023-12-20T22:05:34;8.90;99.90
1878;DHT22;939;51.426;6.972;2023-12-20T22:08:02;8.90;99.90
1878;DHT22;939;51.426;6.972;2023-12-20T22:10:29;8.90;99.90
1878;DHT22;939;51.426;6.972;2023-12-20T22:12:56;8.90;99.90
1878;DHT22;939;51.426;6.972;2023-12-20T22:15:58;8.90;99.90
1878;DHT22;939;51.426;6.972;2023-12-20T22:18:25;8.90;99.90
1878;DHT22;939;51.426;6.972;2023-12-20T22:20:52;8.90;99.90
1878;DHT22;939;51.426;6.972;2023-12-20T22:23:22;8.90;99.90
1878;DHT22;939;51.426;6.972;2023-12-20T22:25:51;8.90;99.90
1878;DHT22;939;51.426;6.972;2023-12-20T22:28:18;8.90;99.90
1878;DHT22;939;51.426;6.972;2023-12-20T22:30:53;8.90;99.90
1878;DHT22;939;51.426;6.972;2023-12-20T22:33:20;8.90;99.90
1878;DHT22;939;51.426;6.972;2023-12-20T22:35:52;8.90;99.90
1878;DHT22;939;51.426;6.972;2023-12-20T22:38:19;8.90;99.90
1878;DHT22;939;51.426;6.972;2023-12-20T22:40:47;8.90;99.90
1878;DHT22;939;51.426;6.972;2023-12-20T22:43:13;8.90;99.90
1878;DHT22;939;51.426;6.972;2023-12-20T22:45:40;8.90;99.90
1878;DHT22;939;51.426;6.972;2023-12-20T22:48:15;8.90;99.90
1878;DHT22;939;51.426;6.972;2023-12-20T22:50:48;8.90;99.90
1878;DHT22;939;51.426;6.972;2023-12-20T22:53:24;8.90;99.90
1878;DHT22;939;51.426;6.972;2023-12-20T22:55:51;9.00;99.90
1878;DHT22;939;51.426;6.972;2023-12-20T22:58:18;9.00;99.90
1878;DHT22;939;51.426;6.972;2023-12-20T23:00:45;9.00;99.90
1878;DHT22;939;51.426;6.972;2023-12-20T23:03:14;9.00;99.90
1878;DHT22;939;51.426;6.972;2023-12-20T23:06:00;9.00;99.90
1878;DHT22;939;51.426;6.972;2023-12-20T23:11:33;9.00;99.90
1878;DHT22;939;51.426;6.972;2023-12-20T23:14:00;9.00;99.90
1878;DHT22;939;51.426;6.972;2023-12-20T23:16:27;9.00;99.90
1878;DHT22;939;51.426;6.972;2023-12-20T23:18:56;9.10;99.90
1878;DHT22;939;51.426;6.972;2023-12-20T23:21:23;9.10;99.90
1878;DHT22;939;51.426;6.972;2023-12-20T23:23:52;9.00;99.90
1878;DHT22;939;51.426;6.972;2023-12-20T23:26:19;9.10;99.90
1878;DHT22;939;51.426;6.972;2023-12-20T23:28:46;9.00;99.90
1878;DHT22;939;51.426;6.972;2023-12-20T23:31:22;9.00;99.90
1878;DHT22;939;51.426;6.972;2023-12-20T23:33:49;9.00;99.90
1878;DHT22;939;51.426;6.972;2023-12-20T23:36:18;9.00;99.90
1878;DHT22;939;51.426;6.972;2023-12-20T23:38:45;9.10;99.90
1878;DHT22;939;51.426;6.972;2023-12-20T23:41:12;9.10;99.90
1878;DHT22;939;51.426;6.972;2023-12-20T23:43:39;9.20;99.90
1878;DHT22;939;51.426;6.972;2023-12-20T23:46:06;9.10;99.90
1878;DHT22;939;51.426;6.972;2023-12-20T23:48:33;9.20;99.90
1878;DHT22;939;51.426;6.972;2023-12-20T23:51:26;9.20;99.90
1878;DHT22;939;51.426;6.972;2023-12-20T23:53:54;9.10;99.90
1878;DHT22;939;51.426;6.972;2023-12-20T23:56:27;9.20;99.90
1878;DHT22;939;51.426;6.972;2023-12-20T23:58:54;9.20;99.90
